createdAt,value
2018-08-28T00:00:34.634Z,97172.59
2018-08-28T00:03:03.690Z,97170.03
2018-08-28T00:05:32.790Z,97167.06
2018-08-28T00:08:02.027Z,97175.17
2018-08-28T00:10:31.109Z,97166.63
2018-08-28T00:13:00.169Z,97174.34
2018-08-28T00:15:29.193Z,97176.95
2018-08-28T00:17:58.212Z,97177.41
2018-08-28T00:20:27.234Z,97172.73
2018-08-28T00:22:56.366Z,97177.88
2018-08-28T00:25:25.482Z,97178.34
2018-08-28T00:27:54.502Z,97182.66
2018-08-28T00:30:23.582Z,97181.77
2018-08-28T00:32:52.650Z,97185.26
2018-08-28T00:35:22.194Z,97189.54
2018-08-28T00:43:04.780Z,97191.42
2018-08-28T00:45:34.096Z,97193.63
2018-08-28T00:48:03.291Z,97191.52
2018-08-28T00:50:32.420Z,97199.29
2018-08-28T00:53:01.591Z,97203.17
2018-08-28T00:55:30.716Z,97203.63
2018-08-28T00:57:59.831Z,97207.09
2018-08-28T01:00:28.991Z,97207.98
2018-08-28T01:02:58.100Z,97198.55
2018-08-28T01:05:27.210Z,97203.70
2018-08-28T01:07:56.308Z,97206.27
2018-08-28T01:10:25.392Z,97207.98
2018-08-28T01:12:54.532Z,97207.98
2018-08-28T01:15:24.422Z,97213.09
2018-08-28T01:17:53.584Z,97212.23
2018-08-28T01:20:22.738Z,97214.83
2018-08-28T01:38:32.072Z,97215.27
2018-08-28T01:41:01.215Z,97219.15
2018-08-28T01:43:32.212Z,97224.71
2018-08-28T01:46:01.396Z,97217.06
2018-08-28T01:48:30.578Z,97219.66
2018-08-28T01:50:59.744Z,97219.27
2018-08-28T01:53:28.933Z,97218.89
2018-08-28T01:55:58.180Z,97221.48
2018-08-28T01:58:27.345Z,97221.94
2018-08-28T02:00:56.486Z,97216.43
2018-08-28T02:03:25.563Z,97207.45
2018-08-28T02:05:56.513Z,97210.47
2018-08-28T02:08:25.700Z,97200.30
2018-08-28T02:10:54.880Z,97210.95
2018-08-28T02:13:24.050Z,97203.30
2018-08-28T02:15:54.100Z,97209.77
2018-08-28T02:18:23.365Z,97211.45
2018-08-28T02:20:53.489Z,97204.69
2018-08-28T02:23:23.356Z,97211.91
2018-08-28T02:25:53.336Z,97214.08
2018-08-28T02:28:23.482Z,97204.69
2018-08-28T02:36:07.460Z,97217.60
2018-08-28T02:38:36.889Z,97222.73
2018-08-28T02:41:06.129Z,97216.77
2018-08-28T02:43:35.285Z,97217.22
2018-08-28T02:46:04.453Z,97223.26
2018-08-28T02:48:35.385Z,97227.16
2018-08-28T02:51:04.609Z,97227.16
2018-08-28T02:53:36.333Z,97226.30
2018-08-28T02:56:05.931Z,97223.74
2018-08-28T02:58:35.057Z,97222.02
2018-08-28T03:01:04.285Z,97218.63
2018-08-28T03:03:33.558Z,97215.69
2018-08-28T03:06:02.629Z,97217.82
2018-08-28T03:08:33.991Z,97217.84
2018-08-28T03:11:03.084Z,97223.88
2018-08-28T03:13:32.350Z,97226.05
2018-08-28T03:16:01.494Z,97223.05
2018-08-28T03:18:30.693Z,97224.77
2018-08-28T03:20:59.829Z,97231.58
2018-08-28T03:23:28.994Z,97227.33
2018-08-28T03:25:58.087Z,97226.05
2018-08-28T03:28:27.468Z,97235.88
2018-08-28T03:30:56.597Z,97232.45
2018-08-28T03:33:25.875Z,97229.01
2018-08-28T03:35:55.072Z,97230.30
2018-08-28T03:38:24.707Z,97235.05
2018-08-28T03:40:54.555Z,97234.23
2018-08-28T03:43:24.937Z,97231.69
2018-08-28T03:45:55.388Z,97229.17
2018-08-28T03:48:24.795Z,97230.04
2018-08-28T03:50:54.495Z,97238.66
2018-08-28T03:53:24.133Z,97245.53
2018-08-28T03:55:54.245Z,97238.77
2018-08-28T03:58:24.314Z,97238.77
2018-08-28T04:05:49.726Z,97244.38
2018-08-28T04:08:18.883Z,97255.09
2018-08-28T04:10:49.117Z,97253.38
2018-08-28T04:13:18.364Z,97243.95
2018-08-28T04:15:47.567Z,97248.20
2018-08-28T04:18:16.982Z,97238.83
2018-08-28T04:20:46.461Z,97238.83
2018-08-28T04:23:15.762Z,97246.52
2018-08-28T04:25:46.753Z,97245.69
2018-08-28T04:28:15.989Z,97249.16
2018-08-28T04:30:47.114Z,97255.13
2018-08-28T04:33:16.268Z,97253.42
2018-08-28T04:35:45.522Z,97255.15
2018-08-28T04:38:14.717Z,97254.31
2018-08-28T04:40:43.906Z,97255.19
2018-08-28T04:43:14.131Z,97260.33
2018-08-28T04:45:43.366Z,97263.77
2018-08-28T04:48:12.524Z,97266.34
2018-08-28T04:50:42.010Z,97259.48
2018-08-28T04:53:11.221Z,97274.86
2018-08-28T04:55:40.826Z,97274.00
2018-08-28T04:58:09.972Z,97273.54
2018-08-28T05:00:39.518Z,97277.34
2018-08-28T05:03:08.653Z,97273.07
2018-08-28T05:05:38.114Z,97273.48
2018-08-28T05:11:10.288Z,97285.02
2018-08-28T05:13:39.732Z,97289.23
2018-08-28T05:16:08.930Z,97279.81
2018-08-28T05:18:39.098Z,97285.80
2018-08-28T05:21:08.279Z,97281.08
2018-08-28T05:24:08.716Z,97274.63
2018-08-28T05:26:38.166Z,97278.03
2018-08-28T05:29:07.263Z,97280.59
2018-08-28T05:31:36.489Z,97277.53
2018-08-28T05:34:05.996Z,97283.04
2018-08-28T05:36:35.419Z,97291.50
2018-08-28T05:39:05.907Z,97287.20
2018-08-28T05:41:35.043Z,97289.73
2018-08-28T05:44:04.210Z,97291.38
2018-08-28T05:46:33.395Z,97299.89
2018-08-28T05:49:02.750Z,97301.52
2018-08-28T05:51:31.882Z,97299.77
2018-08-28T05:54:00.992Z,97300.60
2018-08-28T05:56:30.123Z,97293.34
2018-08-28T05:58:59.343Z,97292.84
2018-08-28T06:01:28.519Z,97291.48
2018-08-28T06:03:57.757Z,97299.56
2018-08-28T06:06:26.902Z,97302.56
2018-08-28T06:08:56.221Z,97307.27
2018-08-28T06:11:25.418Z,97308.99
2018-08-28T06:18:53.236Z,97311.59
2018-08-28T06:21:22.444Z,97305.58
2018-08-28T06:23:52.060Z,97307.19
2018-08-28T06:26:21.216Z,97307.52
2018-08-28T06:28:50.321Z,97306.11
2018-08-28T06:31:19.417Z,97306.84
2018-08-28T06:33:49.233Z,97312.73
2018-08-28T06:36:18.459Z,97309.20
2018-08-28T06:38:47.625Z,97316.38
2018-08-28T06:41:16.809Z,97310.32
2018-08-28T06:43:46.282Z,97309.81
2018-08-28T06:46:15.464Z,97307.22
2018-08-28T06:48:44.985Z,97315.70
2018-08-28T06:51:14.141Z,97307.92
2018-08-28T06:53:43.741Z,97311.70
2018-08-28T06:56:12.885Z,97309.83
2018-08-28T06:58:42.435Z,97312.68
2018-08-28T07:01:11.601Z,97314.61
2018-08-28T07:03:41.095Z,97316.69
2018-08-28T07:06:10.351Z,97319.98
2018-08-28T07:08:39.943Z,97319.06
2018-08-28T07:11:09.119Z,97319.73
2018-08-28T07:13:38.500Z,97324.70
2018-08-28T07:16:07.886Z,97321.14
2018-08-28T07:18:37.124Z,97316.81
2018-08-28T07:21:06.406Z,97314.28
2018-08-28T07:23:35.764Z,97313.74
2018-08-28T07:26:05.196Z,97311.53
2018-08-28T07:28:34.393Z,97308.95
2018-08-28T07:31:03.593Z,97310.53
2018-08-28T07:33:32.701Z,97311.64
2018-08-28T07:36:01.858Z,97315.43
2018-08-28T07:38:31.105Z,97316.21
2018-08-28T07:41:01.302Z,97315.24
2018-08-28T07:43:30.516Z,97315.20
2018-08-28T07:45:59.690Z,97317.31
2018-08-28T07:48:28.937Z,97316.77
2018-08-28T07:50:58.070Z,97319.16
2018-08-28T07:53:27.211Z,97316.38
2018-08-28T07:55:56.397Z,97322.98
2018-08-28T07:58:26.412Z,97319.34
2018-08-28T08:37:48.373Z,97325.98
2018-08-28T08:40:17.521Z,97320.69
2018-08-28T08:42:47.082Z,97317.55
2018-08-28T08:45:16.287Z,97312.61
2018-08-28T08:47:45.938Z,97318.33
2018-08-28T08:50:15.100Z,97315.98
2018-08-28T08:52:44.868Z,97316.98
2018-08-28T08:55:14.115Z,97313.26
2018-08-28T08:57:43.694Z,97312.20
2018-08-28T09:00:30.822Z,97312.77
2018-08-28T09:03:00.061Z,97309.98
2018-08-28T09:05:29.226Z,97306.93
2018-08-28T09:07:58.387Z,97302.80
2018-08-28T09:10:29.402Z,97303.92
2018-08-28T09:12:58.554Z,97305.16
2018-08-28T09:15:27.942Z,97302.67
2018-08-28T09:17:57.630Z,97298.09
2018-08-28T09:20:28.201Z,97300.16
2018-08-28T09:22:57.688Z,97294.92
2018-08-28T09:25:28.494Z,97294.44
2018-08-28T09:27:57.631Z,97297.30
2018-08-28T09:30:28.370Z,97301.66
2018-08-28T09:32:57.764Z,97292.77
2018-08-28T09:35:27.400Z,97300.14
2018-08-28T10:14:48.651Z,97286.56
2018-08-28T10:17:17.798Z,97287.06
2018-08-28T10:19:47.305Z,97285.25
2018-08-28T10:22:16.509Z,97280.20
2018-08-28T10:24:46.026Z,97284.45
2018-08-28T10:27:16.032Z,97282.45
2018-08-28T10:29:47.417Z,97283.18
2018-08-28T10:32:17.443Z,97278.48
2018-08-28T10:34:48.106Z,97280.03
2018-08-28T10:37:19.302Z,97280.28
2018-08-28T10:39:48.327Z,97278.44
2018-08-28T10:42:17.454Z,97274.84
2018-08-28T10:44:46.519Z,97268.49
2018-08-28T10:47:15.547Z,97266.84
2018-08-28T10:49:44.663Z,97264.27
2018-08-28T10:52:13.679Z,97265.84
2018-08-28T10:54:42.718Z,97261.61
2018-08-28T10:57:11.815Z,97261.23
2018-08-28T10:59:40.987Z,97258.69
2018-08-28T11:02:10.169Z,97248.92
2018-08-28T11:04:39.336Z,97247.47
2018-08-28T11:07:08.378Z,97247.47
2018-08-28T11:09:37.451Z,97250.92
2018-08-28T11:12:06.528Z,97247.19
2018-08-28T11:14:35.641Z,97251.20
2018-08-28T11:17:05.060Z,97243.43
2018-08-28T11:19:34.295Z,97242.17
2018-08-28T11:22:03.386Z,97242.41
2018-08-28T11:24:32.474Z,97247.20
2018-08-28T11:27:01.533Z,97247.03
2018-08-28T11:29:30.615Z,97250.20
2018-08-28T11:31:59.691Z,97247.61
2018-08-28T11:34:28.818Z,97250.12
2018-08-28T11:36:58.386Z,97243.41
2018-08-28T11:39:28.381Z,97235.37
2018-08-28T11:41:58.553Z,97231.88
2018-08-28T11:44:28.454Z,97227.08
2018-08-28T11:46:59.528Z,97234.80
2018-08-28T11:49:29.472Z,97238.67
2018-08-28T11:51:59.325Z,97230.11
2018-08-28T11:54:29.298Z,97231.82
2018-08-28T11:56:59.790Z,97212.11
2018-08-28T11:59:28.820Z,97223.19
2018-08-28T12:01:58.802Z,97219.06
2018-08-28T12:04:28.587Z,97207.16
2018-08-28T12:06:58.784Z,97212.26
2018-08-28T12:09:28.666Z,97203.75
2018-08-28T12:11:58.855Z,97204.96
2018-08-28T12:14:28.717Z,97195.75
2018-08-28T12:16:58.825Z,97193.25
2018-08-28T12:19:28.725Z,97191.98
2018-08-28T12:21:58.907Z,97191.57
2018-08-28T12:24:28.793Z,97183.98
2018-08-28T12:26:58.924Z,97188.62
2018-08-28T12:29:28.832Z,97176.14
2018-08-28T12:31:58.954Z,97174.02
2018-08-28T12:34:28.866Z,97170.01
2018-08-28T12:36:59.053Z,97167.11
2018-08-28T12:39:29.256Z,97167.89
2018-08-28T12:41:58.932Z,97172.24
2018-08-28T12:44:28.897Z,97164.45
2018-08-28T12:46:59.025Z,97160.18
2018-08-28T12:49:28.904Z,97168.09
2018-08-28T12:51:59.108Z,97156.14
2018-08-28T12:54:29.229Z,97154.58
2018-08-28T12:56:59.114Z,97157.70
2018-08-28T12:59:28.997Z,97155.14
2018-08-28T13:01:59.152Z,97153.09
2018-08-28T13:04:29.297Z,97149.08
2018-08-28T13:06:59.244Z,97143.25
2018-08-28T13:09:29.277Z,97139.61
2018-08-28T13:11:59.416Z,97135.11
2018-08-28T13:14:29.370Z,97139.66
2018-08-28T13:16:59.253Z,97129.45
2018-08-28T13:19:29.285Z,97134.14
2018-08-28T13:21:59.323Z,97126.17
2018-08-28T13:24:29.413Z,97131.44
2018-08-28T13:26:59.717Z,97134.22
2018-08-28T13:29:29.444Z,97128.94
2018-08-28T13:31:59.350Z,97134.10
2018-08-28T13:50:14.607Z,97121.09
2018-08-28T13:52:45.144Z,97125.76
2018-08-28T13:55:14.307Z,97116.95
2018-08-28T13:57:43.776Z,97123.20
2018-08-28T14:00:14.714Z,97117.66
2018-08-28T14:02:44.460Z,97118.42
2018-08-28T14:05:13.729Z,97119.36
2018-08-28T14:07:43.669Z,97116.50
2018-08-28T14:10:13.278Z,97117.78
2018-08-28T14:15:45.634Z,97100.23
2018-08-28T14:18:14.760Z,97099.49
2018-08-28T14:20:44.189Z,97103.36
2018-08-28T14:23:13.298Z,97099.55
2018-08-28T14:25:42.785Z,97100.70
2018-08-28T14:28:11.972Z,97099.92
2018-08-28T14:30:42.401Z,97096.16
2018-08-28T14:35:55.699Z,97088.06
2018-08-28T14:38:24.876Z,97090.55
2018-08-28T14:40:54.009Z,97088.94
2018-08-28T14:43:23.152Z,97088.99
2018-08-28T14:45:52.676Z,97085.80
2018-08-28T14:48:23.472Z,97085.20
2018-08-28T14:50:52.715Z,97082.95
2018-08-28T14:53:21.909Z,97082.25
2018-08-28T14:55:51.429Z,97083.56
2018-08-28T14:58:20.726Z,97090.06
2018-08-28T15:00:50.325Z,97084.68
2018-08-28T15:03:19.479Z,97072.86
2018-08-28T15:05:49.031Z,97076.89
2018-08-28T15:08:20.837Z,97080.25
2018-08-28T15:10:50.494Z,97078.36
2018-08-28T15:13:19.740Z,97072.30
2018-08-28T15:15:49.188Z,97068.68
2018-08-28T15:18:18.317Z,97076.67
2018-08-28T15:20:47.945Z,97068.00
2018-08-28T15:23:17.161Z,97062.92
2018-08-28T15:25:46.653Z,97068.02
2018-08-28T15:28:15.882Z,97070.22
2018-08-28T15:30:45.565Z,97066.67
2018-08-28T15:33:14.724Z,97064.45
2018-08-28T15:35:44.393Z,97070.05
2018-08-28T15:38:13.592Z,97064.22
2018-08-28T15:40:43.028Z,97058.34
2018-08-28T15:43:12.188Z,97056.78
2018-08-28T15:45:41.674Z,97051.78
2018-08-28T15:48:10.794Z,97054.95
2018-08-28T15:50:40.036Z,97059.13
2018-08-28T15:53:09.502Z,97054.12
2018-08-28T15:55:38.715Z,97052.81
2018-08-28T15:58:07.898Z,97044.61
2018-08-28T16:00:37.065Z,97044.97
2018-08-28T16:03:06.263Z,97042.00
2018-08-28T16:05:35.431Z,97050.19
2018-08-28T16:08:04.694Z,97043.98
2018-08-28T16:10:33.837Z,97047.48
2018-08-28T16:13:02.993Z,97051.42
2018-08-28T16:15:32.122Z,97054.36
2018-08-28T16:18:04.102Z,97057.13
2018-08-28T16:20:33.272Z,97055.52
2018-08-28T16:23:06.863Z,97053.67
2018-08-28T16:25:37.724Z,97054.87
2018-08-28T16:28:06.925Z,97058.56
2018-08-28T16:30:36.152Z,97053.30
2018-08-28T16:33:07.033Z,97055.39
2018-08-28T16:35:36.291Z,97057.75
2018-08-28T16:38:05.450Z,97055.98
2018-08-28T16:40:34.661Z,97050.16
2018-08-28T16:43:03.749Z,97051.64
2018-08-28T16:45:32.916Z,97046.36
2018-08-28T16:48:02.077Z,97048.11
2018-08-28T16:50:31.249Z,97046.51
2018-08-28T16:53:01.180Z,97043.82
2018-08-28T16:55:30.787Z,97047.59
2018-08-28T17:02:54.985Z,97047.28
2018-08-28T17:05:24.432Z,97047.18
2018-08-28T17:07:53.941Z,97036.32
2018-08-28T17:10:23.101Z,97038.66
2018-08-28T17:12:52.719Z,97046.50
2018-08-28T17:15:21.971Z,97038.20
2018-08-28T17:17:51.459Z,97034.20
2018-08-28T17:20:21.886Z,97039.80
2018-08-28T17:22:51.290Z,97041.91
2018-08-28T17:25:20.843Z,97044.98
2018-08-28T17:27:50.547Z,97042.27
2018-08-28T17:30:19.982Z,97046.52
2018-08-28T17:32:49.604Z,97048.20
2018-08-28T17:35:18.812Z,97043.78
2018-08-28T17:37:50.893Z,97046.83
2018-08-28T17:40:21.915Z,97052.47
2018-08-28T17:42:52.025Z,97054.55
2018-08-28T17:45:21.358Z,97052.33
2018-08-28T17:47:51.095Z,97052.33
2018-08-28T17:50:20.368Z,97047.50
2018-08-28T17:52:49.578Z,97054.34
2018-08-28T17:55:18.819Z,97058.08
2018-08-28T17:57:48.375Z,97054.93
2018-08-28T18:00:17.622Z,97051.94
2018-08-28T18:02:47.174Z,97057.44
2018-08-28T18:05:16.452Z,97054.53
2018-08-28T18:07:46.103Z,97053.16
2018-08-28T18:10:15.577Z,97056.88
2018-08-28T18:12:48.419Z,97053.75
2018-08-28T18:15:17.912Z,97058.34
2018-08-28T18:17:47.476Z,97066.42
2018-08-28T18:20:16.847Z,97061.64
2018-08-28T18:22:46.416Z,97064.52
2018-08-28T18:25:15.629Z,97064.77
2018-08-28T18:27:45.332Z,97067.67
2018-08-28T18:30:14.748Z,97064.41
2018-08-28T18:32:44.402Z,97069.88
2018-08-28T18:35:14.569Z,97070.98
2018-08-28T18:37:44.291Z,97073.80
2018-08-28T18:40:13.737Z,97073.59
2018-08-28T18:42:43.392Z,97082.03
2018-08-28T18:45:12.899Z,97084.03
2018-08-28T18:47:42.562Z,97084.13
2018-08-28T18:50:12.015Z,97087.36
2018-08-28T18:52:44.540Z,97088.83
2018-08-28T18:55:14.057Z,97090.82
2018-08-28T18:57:43.796Z,97094.12
2018-08-28T19:00:15.098Z,97100.20
2018-08-28T19:02:44.900Z,97099.29
2018-08-28T19:05:14.201Z,97093.53
2018-08-28T19:07:44.697Z,97098.05
2018-08-28T19:10:16.298Z,97097.83
2018-08-28T19:12:46.448Z,97087.29
2018-08-28T19:15:15.827Z,97096.06
2018-08-28T19:17:45.764Z,97095.40
2018-08-28T19:20:15.873Z,97091.25
2018-08-28T19:22:47.761Z,97097.37
2018-08-28T19:25:18.359Z,97097.05
2018-08-28T19:27:48.429Z,97090.80
2018-08-28T19:30:18.824Z,97089.17
2018-08-28T19:32:49.369Z,97084.98
2018-08-28T19:35:18.636Z,97085.08
2018-08-28T19:37:52.327Z,97073.63
2018-08-28T19:40:21.977Z,97083.61
2018-08-28T19:42:52.394Z,97082.51
2018-08-28T19:45:23.448Z,97082.66
2018-08-28T19:47:53.418Z,97083.27
2018-08-28T19:50:23.608Z,97084.14
2018-08-28T19:52:53.361Z,97079.98
2018-08-28T19:55:23.750Z,97084.36
2018-08-28T19:57:53.585Z,97079.20
2018-08-28T20:00:22.985Z,97080.13
2018-08-28T20:02:52.805Z,97084.52
2018-08-28T20:05:24.187Z,97084.55
2018-08-28T20:07:56.088Z,97083.02
2018-08-28T20:10:25.376Z,97089.20
2018-08-28T20:12:55.137Z,97085.88
2018-08-28T20:15:24.383Z,97087.72
2018-08-28T20:17:54.092Z,97085.83
2018-08-28T20:20:25.905Z,97083.09
2018-08-28T20:22:55.476Z,97080.64
2018-08-28T20:25:26.907Z,97084.19
2018-08-28T20:27:59.057Z,97084.32
2018-08-28T20:30:28.260Z,97085.27
2018-08-28T20:32:58.368Z,97081.48
2018-08-28T20:35:30.306Z,97085.34
2018-08-28T20:37:59.976Z,97086.20
2018-08-28T20:40:29.160Z,97084.56
2018-08-28T20:42:58.654Z,97087.22
2018-08-28T20:45:27.860Z,97084.69
2018-08-28T20:47:58.251Z,97079.19
2018-08-28T20:50:27.403Z,97080.48
2018-08-28T20:52:57.371Z,97077.60
2018-08-28T20:55:26.639Z,97075.55
2018-08-28T20:57:56.315Z,97075.70
2018-08-28T21:00:25.514Z,97078.39
2018-08-28T21:02:54.797Z,97076.75
2018-08-28T21:05:28.875Z,97076.00
2018-08-28T21:08:00.102Z,97077.41
2018-08-28T21:10:29.787Z,97080.01
2018-08-28T21:12:59.224Z,97080.52
2018-08-28T21:15:28.382Z,97082.77
2018-08-28T21:17:57.565Z,97078.59
2018-08-28T21:20:26.708Z,97084.27
2018-08-28T21:22:55.837Z,97080.95
2018-08-28T21:25:25.141Z,97074.70
2018-08-28T21:27:54.715Z,97073.55
2018-08-28T21:30:23.909Z,97070.20
2018-08-28T21:32:53.461Z,97076.26
2018-08-28T21:35:22.644Z,97076.30
2018-08-28T21:37:54.184Z,97070.36
2018-08-28T21:40:23.363Z,97071.29
2018-08-28T21:42:52.858Z,97068.75
2018-08-28T21:45:22.023Z,97069.70
2018-08-28T21:47:52.250Z,97063.32
2018-08-28T21:50:22.146Z,97065.09
2018-08-28T21:52:51.737Z,97063.39
2018-08-28T21:55:21.028Z,97063.81
2018-08-28T21:57:50.547Z,97063.84
2018-08-28T22:00:19.692Z,97055.32
2018-08-28T22:02:49.262Z,97053.22
2018-08-28T22:05:22.168Z,97051.53
2018-08-28T22:07:55.931Z,97047.29
2018-08-28T22:10:25.176Z,97045.58
2018-08-28T22:12:54.764Z,97038.80
2018-08-28T22:15:24.072Z,97037.52
2018-08-28T22:17:55.712Z,97038.40
2018-08-28T22:20:24.927Z,97034.94
2018-08-28T22:22:54.476Z,97033.27
2018-08-28T22:25:23.732Z,97027.73
2018-08-28T22:27:53.360Z,97027.38
2018-08-28T22:30:22.506Z,97027.83
2018-08-28T22:32:52.175Z,97016.34
2018-08-28T22:35:21.318Z,97012.09
2018-08-28T22:37:50.869Z,97010.42
2018-08-28T22:40:20.005Z,97006.56
2018-08-28T22:42:49.585Z,97001.04
2018-08-28T22:45:18.744Z,97002.78
2018-08-28T22:47:48.226Z,96998.57
2018-08-28T22:50:17.489Z,96998.70
2018-08-28T22:52:47.614Z,97000.89
2018-08-28T22:55:16.745Z,96996.22
2018-08-28T22:57:46.087Z,96991.55
2018-08-28T23:00:15.341Z,96992.89
2018-08-28T23:02:45.051Z,96998.03
2018-08-28T23:05:14.330Z,96991.19
2018-08-28T23:07:43.773Z,96992.13
2018-08-28T23:10:13.021Z,96987.03
2018-08-28T23:12:42.349Z,96995.19
2018-08-28T23:15:11.648Z,96994.84
2018-08-28T23:17:40.828Z,96991.51
2018-08-28T23:20:10.038Z,96986.84
2018-08-28T23:22:39.197Z,96981.31
2018-08-28T23:25:08.464Z,96982.59
2018-08-28T23:27:37.660Z,96984.79
2018-08-28T23:30:06.965Z,96983.11
2018-08-28T23:33:07.332Z,96977.55
2018-08-28T23:35:37.596Z,96973.70
2018-08-28T23:38:06.806Z,96975.41
2018-08-28T23:40:36.706Z,96978.86
2018-08-28T23:43:06.588Z,96970.80
2018-08-28T23:45:35.771Z,96973.37
2018-08-28T23:48:04.914Z,96964.42
2018-08-28T23:50:34.365Z,96964.88
